Townsville, North Carolina
Current Conditions -  °F | °C
As of 9:55 AM on Saturday 20 Dec 2014 (Local Time) from KW63 Reporting Station
Overcast Overcast  
Wind Chill: 30°   Ceiling: 9000
Heat Index: 34°   Visibility: 10mi
Dew Point: 25°   Wind: 5mph
Humidity: 70%   Direction: 70°ENE
Pressure: 30.32"   Gusts: NA
Location:  36.5°N, 78.42°W
Report Text: KW63 201455Z AUTO 07004KT 10SM SCT070 OVC090 01/M04 A3032 RMK AO1
Loading
Personal Weather Stations






























Interactive Weather Map New forecast layout! Learn more

10-Day Weather Forecast

Advertisements
Track Severe Weather on mobile